createdAt,value
2018-01-04T00:00:23.656Z,20.82
2018-01-04T00:01:23.642Z,20.82
2018-01-04T00:02:23.641Z,20.93
2018-01-04T00:03:23.631Z,20.87
2018-01-04T00:04:23.641Z,20.83
2018-01-04T00:05:23.633Z,20.81
2018-01-04T00:06:23.636Z,20.82
2018-01-04T00:07:23.638Z,20.81
2018-01-04T00:08:23.621Z,20.82
2018-01-04T00:09:23.620Z,20.83
2018-01-04T00:10:23.619Z,20.85
2018-01-04T00:11:23.615Z,20.87
2018-01-04T00:12:23.621Z,20.88
2018-01-04T00:13:23.601Z,20.79
2018-01-04T00:14:23.612Z,20.83
2018-01-04T00:15:23.606Z,20.83
2018-01-04T00:16:23.605Z,20.83
2018-01-04T00:17:23.600Z,20.76
2018-01-04T00:18:23.601Z,20.82
2018-01-04T00:19:23.597Z,20.76
2018-01-04T00:20:23.595Z,20.82
2018-01-04T00:21:23.605Z,20.72
2018-01-04T00:22:23.584Z,20.82
2018-01-04T00:23:23.589Z,20.82
2018-01-04T00:24:23.595Z,20.82
2018-01-04T00:25:23.585Z,20.75
2018-01-04T00:26:23.599Z,20.81
2018-01-04T00:27:23.591Z,20.76
2018-01-04T00:28:23.603Z,20.75
2018-01-04T00:29:23.586Z,20.79
2018-01-04T00:30:23.563Z,20.78
2018-01-04T00:31:23.567Z,20.79
2018-01-04T00:32:23.575Z,20.85
2018-01-04T00:33:23.560Z,20.73
2018-01-04T00:34:23.566Z,20.83
2018-01-04T00:35:23.564Z,20.72
2018-01-04T00:36:23.564Z,20.76
2018-01-04T00:37:23.560Z,20.79
2018-01-04T00:38:23.546Z,20.83
2018-01-04T00:39:23.536Z,20.72
2018-01-04T00:40:23.549Z,20.76
2018-01-04T00:41:23.546Z,20.76
2018-01-04T00:42:23.543Z,20.76
2018-01-04T00:43:23.560Z,20.76
2018-01-04T00:44:23.536Z,20.72
2018-01-04T00:45:23.543Z,20.71
2018-01-04T00:46:23.533Z,20.73
2018-01-04T00:47:23.546Z,20.78
2018-01-04T00:48:23.534Z,20.75
2018-01-04T00:49:23.545Z,20.73
2018-01-04T00:50:23.522Z,20.71
2018-01-04T00:51:23.518Z,20.72
2018-01-04T00:52:23.517Z,20.73
2018-01-04T00:53:23.511Z,20.69
2018-01-04T00:54:23.515Z,20.68
2018-01-04T00:55:23.511Z,20.73
2018-01-04T00:56:23.520Z,20.73
2018-01-04T00:57:23.517Z,20.71
2018-01-04T00:58:23.505Z,20.71
2018-01-04T00:59:23.542Z,20.71
2018-01-04T01:00:23.511Z,20.61
2018-01-04T01:01:23.491Z,20.68
2018-01-04T01:02:23.506Z,20.75
2018-01-04T01:03:23.538Z,20.66
2018-01-04T01:04:23.494Z,20.76
2018-01-04T01:05:23.483Z,20.60
2018-01-04T01:06:23.486Z,20.66
2018-01-04T01:07:23.494Z,20.57
2018-01-04T01:08:23.492Z,20.63
2018-01-04T01:09:23.480Z,20.71
2018-01-04T01:10:23.497Z,20.69
2018-01-04T01:11:23.468Z,20.66
2018-01-04T01:12:23.492Z,20.73
2018-01-04T01:13:23.465Z,20.61
2018-01-04T01:14:23.471Z,20.66
2018-01-04T01:15:23.461Z,20.61
2018-01-04T01:16:23.468Z,20.64
2018-01-04T01:17:23.469Z,20.66
2018-01-04T01:18:23.461Z,20.73
2018-01-04T01:19:23.451Z,20.60
2018-01-04T01:20:23.446Z,20.60
2018-01-04T01:21:23.447Z,20.64
2018-01-04T01:22:23.441Z,20.64
2018-01-04T01:23:23.450Z,20.66
2018-01-04T01:24:23.440Z,20.64
2018-01-04T01:25:23.441Z,20.68
2018-01-04T01:26:23.436Z,20.63
2018-01-04T01:27:23.440Z,20.61
2018-01-04T01:28:23.453Z,20.61
2018-01-04T01:29:23.422Z,20.61
2018-01-04T01:30:23.427Z,20.64
2018-01-04T01:31:23.432Z,20.63
2018-01-04T01:32:23.417Z,20.61
2018-01-04T01:33:23.426Z,20.54
2018-01-04T01:34:23.406Z,20.60
2018-01-04T01:35:23.415Z,20.64
2018-01-04T01:36:23.402Z,20.63
2018-01-04T01:37:23.409Z,20.63
2018-01-04T01:38:23.414Z,20.60
2018-01-04T01:39:23.404Z,20.57
2018-01-04T01:40:23.402Z,20.60
2018-01-04T01:41:23.391Z,20.60
2018-01-04T01:42:23.397Z,20.58
2018-01-04T01:43:23.389Z,20.57
2018-01-04T01:44:23.390Z,20.57
2018-01-04T01:45:23.402Z,20.57
2018-01-04T01:46:23.391Z,20.57
2018-01-04T01:47:23.377Z,20.58
2018-01-04T01:48:23.381Z,20.60
2018-01-04T01:49:23.383Z,20.60
2018-01-04T01:50:23.387Z,20.57
2018-01-04T01:51:23.376Z,20.57
2018-01-04T01:52:23.363Z,20.57
2018-01-04T01:53:23.372Z,20.60
2018-01-04T01:54:23.363Z,20.57
2018-01-04T01:55:23.363Z,20.61
2018-01-04T01:56:23.365Z,20.58
2018-01-04T01:57:23.357Z,20.57
2018-01-04T01:58:23.358Z,20.60
2018-01-04T01:59:23.359Z,20.54
2018-01-04T02:00:23.356Z,20.56
2018-01-04T02:01:23.347Z,20.50
2018-01-04T02:02:23.354Z,20.57
2018-01-04T02:03:23.342Z,20.57
2018-01-04T02:04:23.333Z,20.58
2018-01-04T02:05:23.338Z,20.48
2018-01-04T02:06:23.332Z,20.56
2018-01-04T02:07:23.337Z,20.56
2018-01-04T02:08:23.340Z,20.57
2018-01-04T02:09:23.329Z,20.56
2018-01-04T02:10:23.321Z,20.44
2018-01-04T02:11:23.320Z,20.42
2018-01-04T02:12:23.309Z,20.42
2018-01-04T02:13:23.312Z,20.44
2018-01-04T02:14:23.311Z,20.44
2018-01-04T02:15:23.313Z,20.42
2018-01-04T02:16:23.319Z,20.56
2018-01-04T02:17:23.346Z,20.41
2018-01-04T02:18:23.298Z,20.44
2018-01-04T02:19:23.302Z,20.44
2018-01-04T02:20:23.296Z,20.56
2018-01-04T02:21:23.293Z,20.42
2018-01-04T02:22:23.291Z,20.42
2018-01-04T02:23:23.288Z,20.44
2018-01-04T02:24:23.318Z,20.54
2018-01-04T02:25:23.286Z,20.46
2018-01-04T02:26:23.289Z,20.44
2018-01-04T02:27:23.278Z,20.50
2018-01-04T02:28:23.273Z,20.53
2018-01-04T02:29:23.273Z,20.42
2018-01-04T02:30:23.278Z,20.48
2018-01-04T02:31:23.281Z,20.51
2018-01-04T02:32:23.269Z,20.46
2018-01-04T02:33:23.293Z,20.48
2018-01-04T02:34:23.264Z,20.44
2018-01-04T02:35:23.262Z,20.38
2018-01-04T02:36:23.297Z,20.50
2018-01-04T02:37:23.253Z,20.44
2018-01-04T02:38:23.246Z,20.41
2018-01-04T02:39:23.245Z,20.46
2018-01-04T02:40:23.245Z,20.48
2018-01-04T02:41:23.256Z,20.41
2018-01-04T02:42:23.248Z,20.42
2018-01-04T02:43:23.244Z,20.48
2018-01-04T02:44:23.241Z,20.44
2018-01-04T02:45:23.237Z,20.41
2018-01-04T02:46:23.230Z,20.48
2018-01-04T02:47:23.226Z,20.44
2018-01-04T02:48:23.233Z,20.41
2018-01-04T02:49:23.227Z,20.42
2018-01-04T02:50:23.224Z,20.44
2018-01-04T02:51:23.224Z,20.46
2018-01-04T02:52:23.223Z,20.41
2018-01-04T02:53:23.214Z,20.46
2018-01-04T02:54:23.233Z,20.44
2018-01-04T02:55:23.202Z,20.42
2018-01-04T02:56:23.213Z,20.38
2018-01-04T02:57:23.205Z,20.46
2018-01-04T02:58:23.207Z,20.42
2018-01-04T02:59:23.196Z,20.46
2018-01-04T03:00:23.197Z,20.50
2018-01-04T03:01:23.212Z,20.41
2018-01-04T03:02:23.195Z,20.38
2018-01-04T03:03:23.188Z,20.40
2018-01-04T03:04:23.194Z,20.38
2018-01-04T03:05:23.189Z,20.42
2018-01-04T03:06:23.190Z,20.48
2018-01-04T03:07:23.181Z,20.40
2018-01-04T03:08:23.177Z,20.35
2018-01-04T03:09:23.214Z,20.42
2018-01-04T03:10:23.186Z,20.42
2018-01-04T03:11:23.162Z,20.37
2018-01-04T03:12:23.172Z,20.41
2018-01-04T03:13:23.170Z,20.41
2018-01-04T03:14:23.165Z,20.40
2018-01-04T03:15:23.167Z,20.46
2018-01-04T03:16:23.155Z,20.42
2018-01-04T03:17:23.158Z,20.33
2018-01-04T03:18:23.144Z,20.48
2018-01-04T03:19:23.150Z,20.35
2018-01-04T03:20:23.164Z,20.34
2018-01-04T03:21:23.151Z,20.33
2018-01-04T03:22:23.142Z,20.34
2018-01-04T03:23:23.147Z,20.35
2018-01-04T03:24:23.143Z,20.38
2018-01-04T03:25:23.132Z,20.37
2018-01-04T03:26:23.133Z,20.38
2018-01-04T03:27:23.133Z,20.37
2018-01-04T03:28:23.127Z,20.37
2018-01-04T03:29:23.128Z,20.41
2018-01-04T03:30:23.128Z,20.34
2018-01-04T03:31:23.128Z,20.34
2018-01-04T03:32:23.128Z,20.37
2018-01-04T03:33:23.113Z,20.31
2018-01-04T03:34:23.125Z,20.38
2018-01-04T03:35:23.120Z,20.38
2018-01-04T03:36:23.109Z,20.33
2018-01-04T03:37:23.104Z,20.30
2018-01-04T03:38:23.104Z,20.33
2018-01-04T03:39:23.097Z,20.37
2018-01-04T03:40:23.101Z,20.31
2018-01-04T03:41:23.102Z,20.34
2018-01-04T03:42:23.097Z,20.42
2018-01-04T03:43:23.092Z,20.38
2018-01-04T03:44:23.085Z,20.31
2018-01-04T03:45:23.093Z,20.37
2018-01-04T03:46:23.079Z,20.31
2018-01-04T03:47:23.080Z,20.26
2018-01-04T03:48:23.073Z,20.31
2018-01-04T03:49:23.078Z,20.31
2018-01-04T03:50:23.071Z,20.27
2018-01-04T03:51:23.085Z,20.27
2018-01-04T03:52:23.071Z,20.33
2018-01-04T03:53:23.074Z,20.35
2018-01-04T03:54:23.069Z,20.31
2018-01-04T03:55:23.060Z,20.26
2018-01-04T03:56:23.060Z,20.30
2018-01-04T03:57:23.055Z,20.26
2018-01-04T03:58:23.073Z,20.33
2018-01-04T03:59:23.051Z,20.26
2018-01-04T04:00:23.051Z,20.31
2018-01-04T04:01:23.041Z,20.30
2018-01-04T04:02:23.039Z,20.26
2018-01-04T04:03:23.030Z,20.31
2018-01-04T04:04:23.038Z,20.30
2018-01-04T04:05:23.034Z,20.33
2018-01-04T04:06:23.026Z,20.33
2018-01-04T04:07:23.038Z,20.33
2018-01-04T04:08:23.018Z,20.33
2018-01-04T04:09:23.022Z,20.23
2018-01-04T04:10:23.023Z,20.23
2018-01-04T04:11:23.013Z,20.27
2018-01-04T04:12:23.015Z,20.25
2018-01-04T04:13:23.014Z,20.25
2018-01-04T04:14:23.010Z,20.33
2018-01-04T04:15:23.000Z,20.22
2018-01-04T04:16:23.012Z,20.22
2018-01-04T04:17:23.009Z,20.27
2018-01-04T04:18:22.999Z,20.23
2018-01-04T04:19:22.998Z,20.27
2018-01-04T04:20:22.993Z,20.22
2018-01-04T04:21:22.991Z,20.23
2018-01-04T04:22:22.993Z,20.23
2018-01-04T04:23:22.984Z,20.22
2018-01-04T04:24:22.986Z,20.20
2018-01-04T04:25:22.983Z,20.27
2018-01-04T04:26:22.982Z,20.23
2018-01-04T04:27:22.979Z,20.22
2018-01-04T04:28:22.973Z,20.19
2018-01-04T04:29:22.966Z,20.23
2018-01-04T04:30:22.971Z,20.31
2018-01-04T04:31:22.970Z,20.25
2018-01-04T04:32:22.969Z,20.22
2018-01-04T04:33:22.959Z,20.23
2018-01-04T04:34:22.973Z,20.20
2018-01-04T04:35:22.954Z,20.16
2018-01-04T04:36:22.959Z,20.16
2018-01-04T04:37:22.948Z,20.20
2018-01-04T04:38:22.950Z,20.17
2018-01-04T04:39:22.939Z,20.22
2018-01-04T04:40:22.935Z,20.25
2018-01-04T04:41:22.941Z,20.23
2018-01-04T04:42:22.934Z,20.17
2018-01-04T04:43:22.933Z,20.23
2018-01-04T04:44:22.940Z,20.25
2018-01-04T04:45:22.928Z,20.22
2018-01-04T04:46:22.927Z,20.19
2018-01-04T04:47:22.929Z,20.27
2018-01-04T04:48:22.931Z,20.20
2018-01-04T04:49:22.912Z,20.25
2018-01-04T04:50:22.921Z,20.20
2018-01-04T04:51:22.919Z,20.15
2018-01-04T04:52:22.918Z,20.17
2018-01-04T04:53:22.916Z,20.13
2018-01-04T04:54:22.896Z,20.22
2018-01-04T04:55:22.925Z,20.23
2018-01-04T04:56:22.909Z,20.19
2018-01-04T04:57:22.899Z,20.16
2018-01-04T04:58:22.902Z,20.17
2018-01-04T04:59:22.900Z,20.17
2018-01-04T05:00:22.919Z,20.13
2018-01-04T05:01:22.918Z,20.19
2018-01-04T05:02:22.885Z,20.13
2018-01-04T05:03:22.901Z,20.22
2018-01-04T05:04:22.893Z,20.15
2018-01-04T05:05:22.886Z,20.12
2018-01-04T05:06:22.900Z,20.12
2018-01-04T05:07:22.922Z,20.17
2018-01-04T05:08:22.889Z,20.22
2018-01-04T05:09:22.891Z,20.16
2018-01-04T05:10:22.885Z,20.17
2018-01-04T05:11:22.887Z,20.16
2018-01-04T05:12:22.885Z,20.17
2018-01-04T05:13:22.892Z,20.16
2018-01-04T05:14:22.886Z,20.13
2018-01-04T05:15:22.881Z,20.16
2018-01-04T05:16:22.884Z,20.17
2018-01-04T05:17:22.890Z,20.16
2018-01-04T05:18:22.886Z,20.12
2018-01-04T05:19:22.869Z,20.16
2018-01-04T05:20:22.885Z,20.16
2018-01-04T05:21:22.881Z,20.16
2018-01-04T05:22:22.880Z,20.19
2018-01-04T05:23:22.880Z,20.20
2018-01-04T05:24:22.867Z,20.17
2018-01-04T05:25:22.871Z,20.22
2018-01-04T05:26:22.876Z,20.17
2018-01-04T05:27:22.872Z,20.19
2018-01-04T05:28:22.865Z,20.10
2018-01-04T05:29:22.869Z,20.17
2018-01-04T05:30:22.891Z,20.16
2018-01-04T05:31:22.881Z,20.20
2018-01-04T05:32:22.856Z,20.15
2018-01-04T05:33:22.859Z,20.16
2018-01-04T05:34:22.861Z,20.15
2018-01-04T05:35:22.860Z,20.13
2018-01-04T05:36:22.858Z,20.15
2018-01-04T05:37:22.866Z,20.17
2018-01-04T05:38:22.859Z,20.12
2018-01-04T05:39:22.882Z,20.19
2018-01-04T05:40:22.861Z,20.17
2018-01-04T05:41:22.856Z,20.20
2018-01-04T05:42:22.850Z,20.13
2018-01-04T05:43:22.860Z,20.20
2018-01-04T05:44:22.847Z,20.13
2018-01-04T05:45:22.836Z,20.15
2018-01-04T05:46:22.849Z,20.10
2018-01-04T05:47:22.845Z,20.13
2018-01-04T05:48:22.848Z,20.17
2018-01-04T05:49:22.845Z,20.22
2018-01-04T05:50:22.841Z,20.20
2018-01-04T05:51:22.842Z,20.04
2018-01-04T05:52:22.845Z,20.08
2018-01-04T05:53:22.832Z,20.16
2018-01-04T05:54:22.846Z,20.10
2018-01-04T05:55:22.839Z,20.10
2018-01-04T05:56:22.837Z,20.05
2018-01-04T05:57:22.836Z,20.05
2018-01-04T05:58:22.828Z,20.05
2018-01-04T05:59:22.841Z,20.05
2018-01-04T06:00:22.836Z,20.12
2018-01-04T06:01:22.823Z,20.04
2018-01-04T06:02:22.836Z,20.12
2018-01-04T06:03:22.842Z,20.05
2018-01-04T06:04:22.821Z,20.02
2018-01-04T06:05:22.833Z,20.07
2018-01-04T06:06:22.825Z,20.19
2018-01-04T06:07:22.819Z,20.04
2018-01-04T06:08:22.823Z,20.00
2018-01-04T06:09:22.824Z,20.04
2018-01-04T06:10:22.831Z,20.10
2018-01-04T06:11:22.822Z,20.04
2018-01-04T06:12:22.831Z,20.13
2018-01-04T06:13:22.815Z,20.02
2018-01-04T06:14:22.821Z,20.10
2018-01-04T06:15:22.824Z,20.05
2018-01-04T06:16:22.810Z,20.07
2018-01-04T06:17:22.811Z,20.05
2018-01-04T06:18:22.810Z,20.02
2018-01-04T06:19:22.812Z,20.04
2018-01-04T06:20:22.810Z,20.02
2018-01-04T06:21:22.805Z,20.04
2018-01-04T06:22:22.805Z,20.01
2018-01-04T06:23:22.811Z,20.07
2018-01-04T06:24:22.813Z,20.12
2018-01-04T06:25:22.809Z,20.02
2018-01-04T06:26:22.789Z,20.08
2018-01-04T06:27:22.798Z,20.04
2018-01-04T06:28:22.798Z,20.04
2018-01-04T06:29:22.798Z,20.01
2018-01-04T06:30:22.797Z,20.01
2018-01-04T06:31:22.796Z,20.05
2018-01-04T06:32:22.798Z,20.07
2018-01-04T06:33:22.786Z,20.05
2018-01-04T06:34:22.789Z,20.08
2018-01-04T06:35:22.781Z,20.05
2018-01-04T06:36:22.809Z,20.05
2018-01-04T06:37:22.783Z,20.04
2018-01-04T06:38:22.784Z,20.07
2018-01-04T06:39:22.783Z,20.04
2018-01-04T06:40:22.791Z,20.07
2018-01-04T06:41:22.793Z,20.01
2018-01-04T06:42:22.798Z,20.04
2018-01-04T06:43:22.779Z,20.05
2018-01-04T06:44:22.785Z,20.02
2018-01-04T06:45:22.782Z,20.05
2018-01-04T06:46:22.781Z,20.04
2018-01-04T06:47:22.772Z,20.07
2018-01-04T06:48:22.779Z,20.07
2018-01-04T06:49:22.778Z,20.02
2018-01-04T06:50:22.772Z,20.08
2018-01-04T06:51:22.773Z,19.98
2018-01-04T06:52:22.771Z,20.01
2018-01-04T06:53:22.763Z,20.04
2018-01-04T06:54:22.770Z,20.07
2018-01-04T06:55:22.764Z,20.10
2018-01-04T06:56:22.767Z,20.05
2018-01-04T06:57:22.758Z,20.07
2018-01-04T06:58:22.763Z,20.15
2018-01-04T06:59:22.758Z,20.05
2018-01-04T07:00:22.763Z,20.05
2018-01-04T07:01:22.753Z,20.02
2018-01-04T07:02:22.765Z,20.12
2018-01-04T07:03:22.753Z,20.01
2018-01-04T07:04:22.752Z,20.10
2018-01-04T07:05:22.749Z,20.02
2018-01-04T07:06:22.750Z,20.05
2018-01-04T07:07:22.752Z,20.02
2018-01-04T07:08:22.739Z,19.95
2018-01-04T07:09:22.752Z,20.00
2018-01-04T07:10:22.744Z,19.92
2018-01-04T07:11:22.757Z,19.98
2018-01-04T07:12:22.740Z,20.01
2018-01-04T07:13:22.747Z,20.07
2018-01-04T07:14:22.741Z,20.02
2018-01-04T07:15:22.758Z,19.98
2018-01-04T07:16:22.742Z,19.90
2018-01-04T07:17:22.736Z,20.01
2018-01-04T07:18:22.732Z,20.02
2018-01-04T07:19:22.732Z,19.95
2018-01-04T07:20:22.731Z,19.94
2018-01-04T07:21:22.726Z,19.92
2018-01-04T07:22:22.720Z,19.95
2018-01-04T07:23:22.738Z,19.95
2018-01-04T07:24:22.732Z,19.94
2018-01-04T07:25:22.722Z,19.92
2018-01-04T07:26:22.730Z,19.92
2018-01-04T07:27:22.737Z,19.94
2018-01-04T07:28:22.718Z,20.02
2018-01-04T07:29:22.719Z,19.92
2018-01-04T07:30:22.728Z,19.97
2018-01-04T07:31:22.718Z,19.92
2018-01-04T07:32:22.719Z,19.94
2018-01-04T07:33:22.715Z,19.94
2018-01-04T07:34:22.713Z,19.89
2018-01-04T07:35:22.710Z,20.01
2018-01-04T07:36:22.719Z,19.94
2018-01-04T07:37:22.713Z,19.95
2018-01-04T07:38:22.705Z,19.90
2018-01-04T07:39:22.698Z,19.94
2018-01-04T07:40:22.711Z,19.94
2018-01-04T07:41:22.700Z,19.92
2018-01-04T07:42:22.708Z,19.95
2018-01-04T07:43:22.701Z,19.86
2018-01-04T07:44:22.703Z,19.97
2018-01-04T07:45:22.698Z,19.97
2018-01-04T07:46:22.705Z,19.89
2018-01-04T07:47:22.689Z,19.94
2018-01-04T07:48:22.709Z,19.95
2018-01-04T07:49:22.704Z,19.90
2018-01-04T07:50:22.699Z,19.92
2018-01-04T07:51:22.693Z,19.92
2018-01-04T07:52:22.700Z,19.86
2018-01-04T07:53:22.684Z,19.97
2018-01-04T07:54:22.686Z,19.92
2018-01-04T07:55:22.684Z,19.89
2018-01-04T07:56:22.685Z,19.97
2018-01-04T07:57:22.684Z,19.90
2018-01-04T07:58:22.685Z,19.94
2018-01-04T07:59:22.687Z,19.89
2018-01-04T08:00:22.698Z,19.94
2018-01-04T08:01:22.676Z,19.92
2018-01-04T08:02:22.674Z,19.94
2018-01-04T08:03:22.671Z,19.87
2018-01-04T08:04:22.670Z,19.85
2018-01-04T08:05:22.664Z,19.98
2018-01-04T08:06:22.680Z,19.92
2018-01-04T08:07:22.669Z,19.94
2018-01-04T08:08:22.672Z,19.90
2018-01-04T08:09:22.671Z,19.97
2018-01-04T08:10:22.671Z,19.92
2018-01-04T08:11:22.669Z,19.90
2018-01-04T08:12:22.668Z,19.90
2018-01-04T08:13:22.659Z,19.90
2018-01-04T08:14:22.666Z,19.89
2018-01-04T08:15:22.661Z,19.92
2018-01-04T08:16:22.664Z,19.90
2018-01-04T08:17:22.661Z,19.90
2018-01-04T08:18:22.656Z,19.94
2018-01-04T08:19:22.663Z,19.95
2018-01-04T08:20:22.664Z,19.92
2018-01-04T08:21:22.640Z,19.92
2018-01-04T08:22:22.646Z,19.90
2018-01-04T08:23:22.649Z,19.94
2018-01-04T08:24:22.668Z,19.95
2018-01-04T08:25:22.650Z,19.94
2018-01-04T08:26:22.646Z,19.94
2018-01-04T08:27:22.636Z,19.94
2018-01-04T08:28:22.640Z,19.92
2018-01-04T08:29:22.636Z,19.95
2018-01-04T08:30:22.638Z,19.95
2018-01-04T08:31:22.642Z,19.92
2018-01-04T08:32:22.635Z,19.94
2018-01-04T08:33:22.631Z,19.92
2018-01-04T08:34:22.656Z,19.92
2018-01-04T08:35:22.631Z,19.87
2018-01-04T08:36:22.630Z,19.87
2018-01-04T08:37:22.633Z,19.87
2018-01-04T08:38:22.626Z,19.95
2018-01-04T08:39:22.649Z,19.86
2018-01-04T08:40:22.632Z,19.95
2018-01-04T08:41:22.626Z,19.90
2018-01-04T08:42:22.619Z,19.92
2018-01-04T08:43:22.617Z,19.92
2018-01-04T08:44:22.624Z,19.95
2018-01-04T08:45:22.629Z,19.97
2018-01-04T08:46:22.622Z,19.86
2018-01-04T08:47:22.626Z,19.87
2018-01-04T08:48:22.623Z,19.92
2018-01-04T08:49:22.619Z,19.86
2018-01-04T08:50:22.612Z,19.92
2018-01-04T08:51:22.602Z,19.89
2018-01-04T08:52:22.624Z,19.85
2018-01-04T08:53:22.621Z,19.94
2018-01-04T08:54:22.611Z,19.95
2018-01-04T08:55:22.595Z,19.94
2018-01-04T08:56:22.612Z,19.90
2018-01-04T08:57:22.597Z,19.92
2018-01-04T08:58:22.617Z,19.85
2018-01-04T08:59:22.594Z,19.89
2018-01-04T09:00:22.594Z,19.87
2018-01-04T09:01:22.585Z,19.79
2018-01-04T09:02:22.599Z,19.87
2018-01-04T09:03:22.589Z,19.82
2018-01-04T09:04:22.592Z,19.87
2018-01-04T09:05:22.591Z,19.85
2018-01-04T09:06:22.602Z,19.85
2018-01-04T09:07:22.612Z,19.79
2018-01-04T09:08:22.589Z,19.94
2018-01-04T09:09:22.591Z,19.82
2018-01-04T09:10:22.585Z,19.82
2018-01-04T09:11:22.581Z,19.79
2018-01-04T09:12:22.576Z,19.79
2018-01-04T09:13:22.575Z,19.76
2018-01-04T09:14:22.590Z,19.94
2018-01-04T09:15:22.572Z,19.85
2018-01-04T09:16:22.574Z,19.89
2018-01-04T09:17:22.577Z,19.82
2018-01-04T09:18:22.565Z,19.80
2018-01-04T09:19:22.586Z,19.87
2018-01-04T09:20:22.571Z,19.82
2018-01-04T09:21:22.572Z,19.80
2018-01-04T09:22:22.561Z,19.79
2018-01-04T09:23:22.567Z,19.87
2018-01-04T09:24:22.563Z,19.80
2018-01-04T09:25:22.564Z,19.83
2018-01-04T09:26:22.570Z,19.80
2018-01-04T09:27:22.568Z,19.87
2018-01-04T09:28:22.567Z,19.78
2018-01-04T09:29:22.565Z,19.86
2018-01-04T09:30:22.562Z,19.83
2018-01-04T09:31:22.558Z,19.86
2018-01-04T09:32:22.552Z,19.80
2018-01-04T09:33:22.556Z,19.80
2018-01-04T09:34:22.553Z,19.80
2018-01-04T09:35:22.572Z,19.83
2018-01-04T09:36:22.557Z,19.80
2018-01-04T09:37:22.557Z,19.78
2018-01-04T09:38:22.548Z,19.78
2018-01-04T09:39:22.547Z,19.82
2018-01-04T09:40:22.540Z,19.78
2018-01-04T09:41:22.547Z,19.83
2018-01-04T09:42:22.539Z,19.82
2018-01-04T09:43:22.528Z,19.75
2018-01-04T09:44:22.527Z,19.76
2018-01-04T09:45:22.532Z,19.79
2018-01-04T09:46:22.531Z,19.76
2018-01-04T09:47:22.530Z,19.82
2018-01-04T09:48:22.532Z,19.82
2018-01-04T09:49:22.526Z,19.79
2018-01-04T09:50:22.517Z,19.80
2018-01-04T09:51:22.531Z,19.82
2018-01-04T09:52:22.513Z,19.80
2018-01-04T09:53:22.525Z,19.78
2018-01-04T09:54:22.522Z,19.75
2018-01-04T09:55:22.530Z,19.76
2018-01-04T09:56:22.521Z,19.82
2018-01-04T09:57:22.510Z,19.79
2018-01-04T09:58:22.511Z,19.78
2018-01-04T09:59:22.508Z,19.80
2018-01-04T10:00:22.514Z,19.78
2018-01-04T10:01:22.506Z,19.76
2018-01-04T10:02:22.513Z,19.82
2018-01-04T10:03:22.504Z,19.79
2018-01-04T10:04:22.505Z,19.78
2018-01-04T10:05:22.510Z,19.82
2018-01-04T10:06:22.498Z,19.79
2018-01-04T10:07:22.497Z,19.82
2018-01-04T10:08:22.502Z,19.79
2018-01-04T10:09:22.497Z,19.82
2018-01-04T10:10:22.514Z,19.82
2018-01-04T10:11:22.498Z,19.83
2018-01-04T10:12:22.502Z,19.78
2018-01-04T10:13:22.494Z,19.80
2018-01-04T10:14:22.498Z,19.82
2018-01-04T10:15:22.489Z,19.82
2018-01-04T10:16:22.488Z,19.76
2018-01-04T10:17:22.483Z,19.80
2018-01-04T10:18:22.487Z,19.79
2018-01-04T10:19:22.483Z,19.80
2018-01-04T10:20:22.481Z,19.80
2018-01-04T10:21:22.473Z,19.80
2018-01-04T10:22:22.493Z,19.79
2018-01-04T10:23:22.481Z,19.76
2018-01-04T10:24:22.482Z,19.75
2018-01-04T10:25:22.477Z,19.78
2018-01-04T10:26:22.478Z,19.85
2018-01-04T10:27:22.472Z,19.78
2018-01-04T10:28:22.476Z,19.75
2018-01-04T10:29:22.473Z,19.76
2018-01-04T10:30:22.474Z,19.80
2018-01-04T10:31:22.481Z,19.82
2018-01-04T10:32:22.460Z,19.75
2018-01-04T10:33:22.475Z,19.78
2018-01-04T10:34:22.452Z,19.75
2018-01-04T10:35:22.453Z,19.75
2018-01-04T10:36:22.460Z,19.80
2018-01-04T10:37:22.492Z,19.78
2018-01-04T10:38:22.455Z,19.79
2018-01-04T10:39:22.464Z,19.78
2018-01-04T10:40:22.455Z,19.78
2018-01-04T10:41:22.452Z,19.82
2018-01-04T10:42:22.455Z,19.70
2018-01-04T10:43:22.452Z,19.79
2018-01-04T10:44:22.441Z,19.76
2018-01-04T10:45:22.447Z,19.76
2018-01-04T10:46:22.448Z,19.71
2018-01-04T10:47:22.457Z,19.80
2018-01-04T10:48:22.444Z,19.75
2018-01-04T10:49:22.446Z,19.82
2018-01-04T10:50:22.433Z,19.78
2018-01-04T10:51:22.443Z,19.83
2018-01-04T10:52:22.428Z,19.75
2018-01-04T10:53:22.433Z,19.76
2018-01-04T10:54:22.434Z,19.76
2018-01-04T10:55:22.430Z,19.75
2018-01-04T10:56:22.422Z,19.72
2018-01-04T10:57:22.428Z,19.79
2018-01-04T10:58:22.421Z,19.79
2018-01-04T10:59:22.427Z,19.78
2018-01-04T11:00:22.422Z,19.79
2018-01-04T11:01:22.426Z,19.80
2018-01-04T11:02:22.420Z,19.76
2018-01-04T11:03:22.411Z,19.78
2018-01-04T11:04:22.428Z,19.85
2018-01-04T11:05:22.422Z,19.76
2018-01-04T11:06:22.417Z,19.80
2018-01-04T11:07:22.414Z,19.76
2018-01-04T11:08:22.422Z,19.82
2018-01-04T11:09:22.426Z,19.79
2018-01-04T11:10:22.410Z,19.76
2018-01-04T11:11:22.400Z,19.82
2018-01-04T11:12:22.399Z,19.78
2018-01-04T11:13:22.405Z,19.68
2018-01-04T11:14:22.404Z,19.79
2018-01-04T11:15:22.410Z,19.80
2018-01-04T11:16:22.409Z,19.79
2018-01-04T11:17:22.408Z,19.79
2018-01-04T11:18:22.400Z,19.80
2018-01-04T11:19:22.391Z,19.76
2018-01-04T11:20:22.385Z,19.72
2018-01-04T11:21:22.384Z,19.83
2018-01-04T11:22:22.392Z,19.79
2018-01-04T11:23:22.394Z,19.70
2018-01-04T11:24:22.388Z,19.78
2018-01-04T11:25:22.382Z,19.71
2018-01-04T11:26:22.395Z,19.78
2018-01-04T11:27:22.374Z,19.71
2018-01-04T11:28:22.378Z,19.67
2018-01-04T11:29:22.379Z,19.72
2018-01-04T11:30:22.380Z,19.78
2018-01-04T11:31:22.388Z,19.79
2018-01-04T11:32:22.382Z,19.76
2018-01-04T11:33:22.373Z,19.65
2018-01-04T11:34:22.368Z,19.70
2018-01-04T11:35:22.365Z,19.72
2018-01-04T11:36:22.356Z,19.78
2018-01-04T11:37:22.363Z,19.76
2018-01-04T11:38:22.364Z,19.76
2018-01-04T11:39:22.366Z,19.79
2018-01-04T11:40:22.356Z,19.68
2018-01-04T11:41:22.353Z,19.82
2018-01-04T11:42:22.364Z,19.68
2018-01-04T11:43:22.355Z,19.75
2018-01-04T11:44:22.354Z,19.79
2018-01-04T11:45:22.351Z,19.70
2018-01-04T11:46:22.354Z,19.75
2018-01-04T11:47:22.351Z,19.70
2018-01-04T11:48:22.355Z,19.76
2018-01-04T11:49:22.349Z,19.78
2018-01-04T11:50:22.349Z,19.75
2018-01-04T11:51:22.340Z,19.71
2018-01-04T11:52:22.369Z,19.75
2018-01-04T11:53:22.336Z,19.76
2018-01-04T11:54:22.329Z,19.71
2018-01-04T11:55:22.336Z,19.76
2018-01-04T11:56:22.344Z,19.76
2018-01-04T11:57:22.342Z,19.71
2018-01-04T11:58:22.367Z,19.71
2018-01-04T11:59:22.329Z,19.70
2018-01-04T12:00:22.324Z,19.71
2018-01-04T12:01:22.330Z,19.76
2018-01-04T12:02:22.347Z,19.78
2018-01-04T12:03:22.329Z,19.67
2018-01-04T12:04:22.345Z,19.75
2018-01-04T12:05:22.320Z,19.78
2018-01-04T12:06:22.316Z,19.76
2018-01-04T12:07:22.314Z,19.71
2018-01-04T12:08:22.316Z,19.76
2018-01-04T12:09:22.305Z,19.70
2018-01-04T12:10:22.309Z,19.75
2018-01-04T12:11:22.320Z,19.76
2018-01-04T12:12:22.314Z,19.65
2018-01-04T12:13:22.308Z,19.64
2018-01-04T12:14:22.305Z,19.71
2018-01-04T12:15:22.304Z,19.72
2018-01-04T12:16:22.322Z,19.79
2018-01-04T12:17:22.309Z,19.79
2018-01-04T12:18:22.301Z,19.68
2018-01-04T12:19:22.310Z,19.76
2018-01-04T12:20:22.294Z,19.71
2018-01-04T12:21:22.285Z,19.76
2018-01-04T12:22:22.302Z,19.62
2018-01-04T12:23:22.295Z,19.64
2018-01-04T12:24:22.300Z,19.78
2018-01-04T12:25:22.298Z,19.78
2018-01-04T12:26:22.279Z,19.72
2018-01-04T12:27:22.290Z,19.71
2018-01-04T12:28:22.290Z,19.76
2018-01-04T12:29:22.286Z,19.61
2018-01-04T12:30:22.281Z,19.72
2018-01-04T12:31:22.284Z,19.75
2018-01-04T12:32:22.283Z,19.80
2018-01-04T12:33:22.288Z,19.76
2018-01-04T12:34:22.269Z,19.72
2018-01-04T12:35:22.278Z,19.72
2018-01-04T12:36:22.280Z,19.78
2018-01-04T12:37:22.271Z,19.62
2018-01-04T12:38:22.276Z,19.67
2018-01-04T12:39:22.266Z,19.67
2018-01-04T12:40:22.280Z,19.64
2018-01-04T12:41:22.290Z,19.70
2018-01-04T12:42:22.269Z,19.72
2018-01-04T12:43:22.253Z,19.62
2018-01-04T12:44:22.256Z,19.64
2018-01-04T12:45:22.250Z,19.71
2018-01-04T12:46:22.251Z,19.71
2018-01-04T12:47:22.249Z,19.64
2018-01-04T12:48:22.240Z,19.67
2018-01-04T12:49:22.260Z,19.70
2018-01-04T12:50:22.292Z,19.76
2018-01-04T12:51:22.254Z,19.75
2018-01-04T12:52:22.242Z,19.76